Řízení letového provozu České republiky  
Aktualizace dat:  21.08.2019 08:03:27 UTC English version
   METEO Zobrazení stránky:  21.08.2019 08:04:06 UTC  
vysvětlivky
METAR EDDB 210750Z 29007KT 270V330 CAVOK 18/11 Q1027 NOSIG=
METAR EDDC 210750Z 29008KT 240V320 9999 FEW013 17/13 Q1028 NOSIG=
METAR EDDE 210750Z 26005KT 230V290 CAVOK 17/10 Q1029 NOSIG=
METAR EDDF 210750Z VRB02KT 9999 FEW009 16/13 Q1029 NOSIG=
METAR EDDM 210750Z 34004KT 300V050 9999 SCT012 16/12 Q1029 BECMG 08005KT=
METAR EDDN 210750Z VRB02KT 9999 SCT009 15/12 Q1029 NOSIG=
METAR EDDP 210750Z 31006KT 280V340 CAVOK 18/11 Q1028 NOSIG=
METAR EDDT 210750Z 30007KT 260V350 CAVOK 18/12 Q1027 NOSIG=
METAR EDQM 210750Z 34004KT 300V030 CAVOK 15/12 Q1029=
METAR EPBY 210800Z 28007KT 9999 FEW011 16/15 Q1025=
METAR EPGD 210800Z 30006KT 9999 FEW013 16/13 Q1024=
METAR EPKK 210800Z 26012KT 9999 FEW006 BKN009 17/15 Q1024=
METAR EPKT 210800Z 33009KT 9999 -DZ BKN004 15/14 Q1025=
METAR EPLL 210800Z 35009KT 310V020 9999 FEW008 16/14 Q1024=
METAR EPPO 210800Z 30005KT 9999 -RA SCT006 16/14 Q1027=
METAR EPRZ 210800Z 28016KT 9999 FEW020 24/18 Q1021=
METAR EPWA 210800Z 32012KT 9999 -RA SCT006 BKN014 16/15 Q1022 TEMPO BKN007=
METAR EPWR 210800Z 32008KT 9999 -RA BKN006 15/14 Q1027=
METAR LHBP 210800Z 31013KT CAVOK 25/18 Q1021 NOSIG=
METAR LHSM 210745Z AUTO 36020G34KT 340V040 8000 //////CB 21/14 Q1023 NOSIG=
METAR LKBC 210800Z AUTO 27004KT 240V300 9999 BKN007 BKN100 BKN170 15/14 Q1029=
METAR LKCV 210800Z 31011KT 9999 FEW016 BKN120 16/12 Q1028 NOSIG RMK BLU BLU=
METAR LKKB 210800Z 28006KT 250V310 9999 FEW014 BKN050 BKN070 17/13 Q1028 NOSIG RMK BLU BLU=
METAR LKKU 210800Z 01011KT 9999 BKN018 OVC032 17/14 Q1025=
METAR LKKV 210800Z VRB03KT 9999 FEW010 15/12 Q1029 RMK REG QNH 1022=
METAR LKLN 210800Z AUTO VRB02KT 9999 FEW010 SCT012 BKN067 16/12 Q1029=
METAR LKMT 210800Z 34008KT 310V010 9999 -DZ OVC010 15/14 Q1027 NOSIG RMK REG QNH 1022=
METAR LKNA 210800Z 33011KT 9999 BKN012 BKN130 15/13 Q1027 NOSIG RMK GRN GRN=
METAR LKPD 210800Z 30006KT 9999 SCT009 BKN042 15/14 Q1028 NOSIG RMK BLU BLU=
METAR LKPJ 210800Z AUTO 34007KT 300V010 9999 FEW022/// OVC027/// ///// Q////=
METAR LKPR 210800Z 29005KT CAVOK 16/12 Q1029 NOSIG RMK REG QNH 1022=
METAR LKTB 210800Z 35012KT 9999 FEW026 18/12 Q1026 NOSIG RMK REG QNH 1022=
METAR LKVO 210800Z 29006KT 9999 FEW013 BKN066 16/14 Q1029=
METAR LOWI 210750Z VRB03KT 9999 FEW010 SCT017 BKN060 15/12 Q1028 NOSIG=
METAR LOWL 210750Z 26006KT 9999 -RA FEW005 BKN009 BKN028 15/14 Q1029 BECMG SCT007 BKN025=
METAR LOWS 210750Z 29003KT 250V330 9999 FEW004 BKN012 BKN025 14/12 Q1029 BECMG SCT012 BKN030=
METAR LOWW 210750Z 31016KT 9999 -SHRA SCT025 BKN110 19/13 Q1027 NOSIG=
METAR LZIB 210800Z 33011KT 290V010 9999 BKN027 BKN073 19/12 Q1025 WS ALL RWY NOSIG=
METAR LZKZ 210800Z 07004KT 010V130 CAVOK 26/18 Q1020 NOSIG=
METAR LZMC 210700Z 31014KT 9999 FEW023 OVC028 18/12 Q1026=
METAR LZPP 210800Z 32014KT 9999 BKN021 20/15 Q1024=
METAR LZSL 210800Z 20003KT 150V250 9999 FEW038 SCT080 25/20 Q1022=
METAR LZTT 210800Z 04007KT 010V070 9999 SCT036 24/16 Q1023 NOSIG=
METAR LZZI 210800Z 34005KT 310V010 9999 BKN026 18/14 Q1025=